createdAt,value
2022-11-23T00:03:54.095Z,99.90
2022-11-23T00:06:23.134Z,99.90
2022-11-23T00:13:48.547Z,99.90
2022-11-23T00:21:16.535Z,99.90
2022-11-23T00:23:45.308Z,99.90
2022-11-23T00:31:11.398Z,99.90
2022-11-23T00:33:39.668Z,99.90
2022-11-23T00:36:08.666Z,99.90
2022-11-23T00:38:36.262Z,99.90
2022-11-23T00:41:09.575Z,99.90
2022-11-23T00:46:07.217Z,99.90
2022-11-23T00:51:05.076Z,99.90
2022-11-23T00:56:35.398Z,99.90
2022-11-23T00:59:04.210Z,99.90
2022-11-23T01:01:39.369Z,99.90
2022-11-23T01:04:08.742Z,99.90
2022-11-23T01:06:38.872Z,99.90
2022-11-23T01:09:18.257Z,99.90
2022-11-23T01:11:45.924Z,99.90
2022-11-23T01:19:19.236Z,99.90
2022-11-23T01:21:50.419Z,99.90
2022-11-23T01:29:21.585Z,99.90
2022-11-23T01:31:49.162Z,99.90
2022-11-23T01:34:17.599Z,99.90
2022-11-23T01:36:45.404Z,99.90
2022-11-23T01:49:25.273Z,99.90
2022-11-23T01:56:56.797Z,99.90
2022-11-23T02:04:29.879Z,99.90
2022-11-23T02:09:28.312Z,99.90
2022-11-23T02:11:55.912Z,99.90
2022-11-23T02:16:58.718Z,99.90
2022-11-23T02:19:30.307Z,99.90
2022-11-23T02:21:58.112Z,99.90
2022-11-23T02:24:36.810Z,99.90
2022-11-23T02:27:06.917Z,99.90
2022-11-23T02:29:34.969Z,99.90
2022-11-23T02:32:02.624Z,99.90
2022-11-23T02:44:37.475Z,99.90
2022-11-23T02:49:35.840Z,99.90
2022-11-23T02:59:27.239Z,99.90
2022-11-23T03:04:27.625Z,99.90
2022-11-23T03:06:56.346Z,99.90
2022-11-23T03:11:54.363Z,99.90
2022-11-23T03:14:22.099Z,99.90
2022-11-23T03:16:54.310Z,99.90
2022-11-23T03:21:52.826Z,99.90
2022-11-23T03:24:20.404Z,99.90
2022-11-23T03:26:49.163Z,99.90
2022-11-23T03:29:20.799Z,99.90
2022-11-23T03:31:48.657Z,99.90
2022-11-23T03:54:28.440Z,99.90
2022-11-23T03:56:55.950Z,99.90
2022-11-23T04:04:25.091Z,99.90
2022-11-23T04:07:12.947Z,99.90
2022-11-23T04:19:56.981Z,99.90
2022-11-23T04:22:25.105Z,99.90
2022-11-23T04:27:22.601Z,99.90
2022-11-23T04:29:50.132Z,99.90
2022-11-23T04:32:18.502Z,99.90
2022-11-23T04:34:46.324Z,99.90
2022-11-23T04:37:14.752Z,99.90
2022-11-23T04:39:44.748Z,99.90
2022-11-23T04:44:58.110Z,99.90
2022-11-23T04:52:24.039Z,99.90
2022-11-23T04:54:51.827Z,99.90
2022-11-23T04:59:49.238Z,99.90
2022-11-23T05:04:44.849Z,99.90
2022-11-23T05:07:13.970Z,99.90
2022-11-23T05:09:44.686Z,99.90
2022-11-23T05:17:20.706Z,99.90
2022-11-23T05:19:50.174Z,99.90
2022-11-23T05:22:18.594Z,99.90
2022-11-23T05:24:46.186Z,99.90
2022-11-23T05:27:18.358Z,99.90
2022-11-23T05:29:46.651Z,99.90
2022-11-23T05:32:14.985Z,99.90
2022-11-23T05:37:14.008Z,99.90
2022-11-23T05:39:57.064Z,99.90
2022-11-23T05:42:25.402Z,99.90
2022-11-23T05:44:56.293Z,99.90
2022-11-23T05:47:32.541Z,99.90
2022-11-23T05:50:00.468Z,99.90
2022-11-23T05:54:58.983Z,99.90
2022-11-23T05:57:26.605Z,99.90
2022-11-23T05:59:54.142Z,99.90
2022-11-23T06:02:26.437Z,99.90
2022-11-23T06:10:12.017Z,99.90
2022-11-23T06:12:42.181Z,99.90
2022-11-23T06:15:14.119Z,99.90
2022-11-23T06:17:41.879Z,99.90
2022-11-23T06:22:53.716Z,99.90
2022-11-23T06:33:12.948Z,99.90
2022-11-23T06:35:53.889Z,99.90
2022-11-23T06:38:22.090Z,99.90
2022-11-23T06:41:01.302Z,99.90
2022-11-23T06:43:31.142Z,99.90
2022-11-23T06:46:04.805Z,99.90
2022-11-23T06:51:02.470Z,99.90
2022-11-23T06:53:32.032Z,99.90
2022-11-23T06:56:04.697Z,99.90
2022-11-23T07:03:40.612Z,99.90
2022-11-23T07:06:20.248Z,99.90
2022-11-23T07:14:06.650Z,99.90
2022-11-23T07:16:37.898Z,99.90
2022-11-23T07:19:05.523Z,99.90
2022-11-23T07:21:33.128Z,99.90
2022-11-23T07:24:00.652Z,99.90
2022-11-23T07:26:28.343Z,99.90
2022-11-23T07:28:55.878Z,99.90
2022-11-23T07:31:23.499Z,99.90
2022-11-23T07:33:51.283Z,99.90
2022-11-23T07:36:19.287Z,99.90
2022-11-23T07:38:47.140Z,99.90
2022-11-23T07:41:17.539Z,99.90
2022-11-23T07:44:14.641Z,99.90
2022-11-23T07:46:42.257Z,99.90
2022-11-23T07:49:09.806Z,99.90
2022-11-23T07:51:37.618Z,99.90
2022-11-23T07:54:05.230Z,99.90
2022-11-23T07:56:32.766Z,99.90
2022-11-23T07:59:00.365Z,99.90
2022-11-23T08:01:27.979Z,99.90
2022-11-23T08:03:55.515Z,99.90
2022-11-23T08:06:23.141Z,99.90
2022-11-23T08:08:50.845Z,99.90
2022-11-23T08:11:19.618Z,99.90
2022-11-23T08:13:47.132Z,99.90
2022-11-23T08:16:14.659Z,99.90
2022-11-23T08:18:42.179Z,99.90
2022-11-23T08:21:09.780Z,99.90
2022-11-23T08:23:37.337Z,99.90
2022-11-23T08:26:10.376Z,99.90
2022-11-23T08:28:40.934Z,99.90
2022-11-23T08:31:11.228Z,99.90
2022-11-23T08:33:39.578Z,99.90
2022-11-23T08:36:08.258Z,99.90
2022-11-23T08:38:35.789Z,99.90
2022-11-23T08:41:05.586Z,99.90
2022-11-23T08:43:33.521Z,99.90
2022-11-23T08:46:06.687Z,99.90
2022-11-23T08:48:34.409Z,99.90
2022-11-23T08:51:01.993Z,99.90
2022-11-23T08:53:29.690Z,99.90
2022-11-23T08:56:00.366Z,99.90
2022-11-23T08:58:28.014Z,99.90
2022-11-23T09:00:55.669Z,99.90
2022-11-23T09:03:23.266Z,99.90
2022-11-23T09:05:51.258Z,99.90
2022-11-23T09:08:18.826Z,99.90
2022-11-23T09:10:46.316Z,99.90
2022-11-23T09:13:13.929Z,99.90
2022-11-23T09:15:41.531Z,99.90
2022-11-23T09:18:10.050Z,99.90
2022-11-23T09:20:39.983Z,99.90
2022-11-23T09:25:43.173Z,99.90
2022-11-23T09:28:12.700Z,99.90
2022-11-23T09:30:43.377Z,99.90
2022-11-23T09:33:11.017Z,99.90
2022-11-23T09:35:43.590Z,99.90
2022-11-23T09:38:14.541Z,99.90
2022-11-23T09:40:45.059Z,99.90
2022-11-23T09:43:35.646Z,99.90
2022-11-23T09:46:13.323Z,99.90
2022-11-23T09:48:45.102Z,99.90
2022-11-23T09:51:21.414Z,99.90
2022-11-23T09:54:00.298Z,99.90
2022-11-23T09:56:38.974Z,99.90
2022-11-23T09:59:17.502Z,99.90
2022-11-23T10:01:45.168Z,99.90
2022-11-23T10:04:22.922Z,99.90
2022-11-23T10:06:59.042Z,99.90
2022-11-23T10:09:41.307Z,99.90
2022-11-23T10:12:24.206Z,99.90
2022-11-23T10:15:03.582Z,99.90
2022-11-23T10:17:37.070Z,99.90
2022-11-23T10:20:19.714Z,99.90
2022-11-23T10:22:58.206Z,99.90
2022-11-23T10:25:47.626Z,99.90
2022-11-23T10:28:18.315Z,99.90
2022-11-23T10:30:53.845Z,99.90
2022-11-23T10:34:06.302Z,99.90
2022-11-23T10:36:36.628Z,99.90
2022-11-23T10:39:31.726Z,99.90
2022-11-23T10:42:09.071Z,99.90
2022-11-23T10:44:38.143Z,99.90
2022-11-23T10:47:06.026Z,99.90
2022-11-23T10:49:35.003Z,99.90
2022-11-23T10:52:08.322Z,99.90
2022-11-23T10:54:52.714Z,99.90
2022-11-23T10:57:42.379Z,99.90
2022-11-23T11:00:16.275Z,99.90
2022-11-23T11:02:45.299Z,99.90
2022-11-23T11:05:46.330Z,99.90
2022-11-23T11:08:17.008Z,99.90
2022-11-23T11:10:56.897Z,99.90
2022-11-23T11:13:46.395Z,99.90
2022-11-23T11:16:32.162Z,99.90
2022-11-23T11:19:20.284Z,99.90
2022-11-23T11:21:48.100Z,99.90
2022-11-23T11:24:27.513Z,99.90
2022-11-23T11:27:01.660Z,99.90
2022-11-23T11:29:38.685Z,99.90
2022-11-23T11:32:09.730Z,99.20
2022-11-23T11:35:03.370Z,98.50
2022-11-23T11:37:49.231Z,99.20
2022-11-23T11:40:38.087Z,98.40
2022-11-23T11:43:15.194Z,99.90
2022-11-23T11:46:21.341Z,97.20
2022-11-23T11:48:37.835Z,98.40
2022-11-23T11:51:10.836Z,98.30
2022-11-23T11:53:49.524Z,96.50
2022-11-23T11:56:28.595Z,92.00
2022-11-23T11:59:02.794Z,88.10
2022-11-23T12:01:38.150Z,86.40
2022-11-23T12:04:35.654Z,86.50
2022-11-23T12:07:18.161Z,87.00
2022-11-23T12:09:51.457Z,80.40
2022-11-23T12:12:26.619Z,82.10
2022-11-23T12:14:57.528Z,82.60
2022-11-23T12:17:52.482Z,85.30
2022-11-23T12:20:26.322Z,90.30
2022-11-23T12:23:19.135Z,93.00
2022-11-23T12:26:08.671Z,95.50
2022-11-23T12:28:50.955Z,97.50
2022-11-23T12:31:27.147Z,99.30
2022-11-23T12:33:55.200Z,99.50
2022-11-23T12:36:53.847Z,99.70
2022-11-23T12:39:59.795Z,99.90
2022-11-23T12:42:42.174Z,99.90
2022-11-23T12:45:33.773Z,99.90
2022-11-23T12:48:38.727Z,99.90
2022-11-23T12:51:15.343Z,99.90
2022-11-23T12:53:45.759Z,99.90
2022-11-23T12:56:46.495Z,99.90
2022-11-23T12:59:14.904Z,99.90
2022-11-23T13:01:49.304Z,99.90
2022-11-23T13:04:22.747Z,99.90
2022-11-23T13:07:27.639Z,99.90
2022-11-23T13:10:20.447Z,99.90
2022-11-23T13:12:57.595Z,99.90
2022-11-23T13:15:40.027Z,99.90
2022-11-23T13:18:31.759Z,99.90
2022-11-23T13:21:24.050Z,99.90
2022-11-23T13:23:51.746Z,99.90
2022-11-23T13:26:22.054Z,99.90
2022-11-23T13:28:52.124Z,99.90
2022-11-23T13:31:33.665Z,99.90
2022-11-23T13:34:04.243Z,99.90
2022-11-23T13:39:45.270Z,99.90
2022-11-23T13:42:13.564Z,99.90
2022-11-23T13:44:41.280Z,99.90
2022-11-23T13:47:16.124Z,99.90
2022-11-23T13:49:52.662Z,99.90
2022-11-23T13:52:23.606Z,99.90
2022-11-23T13:55:10.532Z,99.90
2022-11-23T13:57:42.805Z,99.90
2022-11-23T14:00:44.185Z,99.90
2022-11-23T14:03:43.385Z,99.90
2022-11-23T14:06:26.101Z,99.90
2022-11-23T14:09:08.828Z,99.90
2022-11-23T14:11:59.221Z,99.90
2022-11-23T14:14:42.215Z,99.90
2022-11-23T14:17:35.215Z,99.90
2022-11-23T14:20:21.190Z,99.90
2022-11-23T14:23:12.018Z,99.90
2022-11-23T14:25:58.246Z,99.90
2022-11-23T14:28:43.655Z,99.90
2022-11-23T14:31:25.921Z,99.90
2022-11-23T14:33:59.082Z,99.90
2022-11-23T14:36:26.705Z,99.90
2022-11-23T14:39:16.922Z,99.90
2022-11-23T14:41:50.004Z,99.90
2022-11-23T14:44:26.156Z,99.90
2022-11-23T14:47:04.733Z,99.90
2022-11-23T14:49:32.921Z,99.90
2022-11-23T14:52:03.045Z,99.90
2022-11-23T14:54:32.340Z,99.90
2022-11-23T14:57:03.523Z,99.90
2022-11-23T14:59:37.700Z,99.90
2022-11-23T15:02:12.746Z,99.90
2022-11-23T15:05:11.213Z,99.90
2022-11-23T15:07:45.642Z,99.90
2022-11-23T15:10:25.364Z,99.90
2022-11-23T15:12:53.106Z,99.90
2022-11-23T15:15:24.167Z,99.90
2022-11-23T15:17:52.930Z,99.90
2022-11-23T15:20:21.974Z,99.90
2022-11-23T15:22:49.985Z,99.90
2022-11-23T15:25:19.837Z,99.90
2022-11-23T15:27:51.227Z,99.90
2022-11-23T15:30:28.204Z,99.90
2022-11-23T15:33:01.122Z,99.90
2022-11-23T15:35:34.519Z,99.90
2022-11-23T15:38:04.295Z,99.90
2022-11-23T15:40:36.524Z,99.90
2022-11-23T15:43:04.554Z,99.90
2022-11-23T15:45:45.821Z,99.90
2022-11-23T15:48:29.076Z,99.90
2022-11-23T15:51:02.309Z,99.90
2022-11-23T15:53:49.172Z,99.90
2022-11-23T15:56:36.481Z,99.90
2022-11-23T15:59:24.252Z,99.90
2022-11-23T16:01:52.812Z,99.90
2022-11-23T16:04:38.972Z,99.90
2022-11-23T16:07:25.694Z,99.90
2022-11-23T16:10:37.723Z,99.90
2022-11-23T16:13:08.808Z,99.90
2022-11-23T16:15:40.730Z,99.90
2022-11-23T16:18:18.310Z,99.90
2022-11-23T16:20:49.874Z,99.90
2022-11-23T16:23:40.549Z,99.90
2022-11-23T16:26:08.218Z,99.90
2022-11-23T16:28:38.462Z,99.90
2022-11-23T16:31:06.356Z,99.90
2022-11-23T16:33:34.201Z,99.90
2022-11-23T16:36:01.757Z,99.90
2022-11-23T16:38:30.334Z,99.90
2022-11-23T16:40:57.854Z,99.90
2022-11-23T16:43:25.481Z,99.90
2022-11-23T16:45:54.192Z,99.90
2022-11-23T16:48:27.499Z,99.90
2022-11-23T16:50:56.940Z,99.90
2022-11-23T16:56:26.995Z,99.90
2022-11-23T16:58:55.351Z,99.90
2022-11-23T17:01:25.190Z,99.90
2022-11-23T17:03:53.299Z,99.90
2022-11-23T17:06:23.168Z,99.90
2022-11-23T17:08:59.401Z,99.90
2022-11-23T17:11:30.930Z,99.90
2022-11-23T17:13:58.676Z,99.90
2022-11-23T17:16:27.003Z,99.90
2022-11-23T17:21:22.581Z,99.90
2022-11-23T17:23:51.907Z,99.90
2022-11-23T17:26:31.607Z,99.90
2022-11-23T17:29:02.189Z,99.90
2022-11-23T17:31:30.625Z,99.90
2022-11-23T17:33:58.804Z,99.90
2022-11-23T17:36:26.791Z,99.90
2022-11-23T17:38:54.541Z,99.90
2022-11-23T17:41:22.202Z,99.90
2022-11-23T17:43:49.966Z,99.90
2022-11-23T17:46:23.964Z,99.90
2022-11-23T17:48:55.803Z,99.90
2022-11-23T17:51:24.870Z,99.90
2022-11-23T17:53:52.773Z,99.90
2022-11-23T17:56:23.681Z,99.90
2022-11-23T17:58:52.859Z,99.90
2022-11-23T18:01:21.963Z,99.90
2022-11-23T18:03:49.930Z,99.90
2022-11-23T18:06:23.187Z,99.90
2022-11-23T18:08:52.036Z,99.90
2022-11-23T18:11:20.593Z,99.90
2022-11-23T18:13:50.278Z,99.90
2022-11-23T18:16:19.686Z,99.90
2022-11-23T18:18:47.782Z,99.90
2022-11-23T18:21:15.798Z,99.90
2022-11-23T18:23:44.584Z,99.90
2022-11-23T18:26:22.517Z,99.90
2022-11-23T18:28:50.159Z,99.90
2022-11-23T18:31:18.383Z,99.90
2022-11-23T18:33:47.426Z,99.90
2022-11-23T18:36:15.537Z,99.90
2022-11-23T18:38:47.562Z,99.90
2022-11-23T18:41:16.748Z,99.90
2022-11-23T18:43:45.381Z,99.90
2022-11-23T18:46:19.252Z,99.90
2022-11-23T18:48:50.618Z,99.90
2022-11-23T18:51:18.727Z,99.90
2022-11-23T18:53:50.999Z,99.90
2022-11-23T18:56:19.352Z,99.90
2022-11-23T18:58:47.221Z,99.90
2022-11-23T19:01:18.268Z,99.90
2022-11-23T19:03:48.343Z,99.90
2022-11-23T19:06:17.506Z,99.90
2022-11-23T19:08:47.654Z,99.90
2022-11-23T19:11:20.708Z,99.90
2022-11-23T19:13:53.849Z,99.90
2022-11-23T19:16:24.520Z,99.90
2022-11-23T19:18:57.326Z,99.90
2022-11-23T19:21:28.263Z,99.90
2022-11-23T19:23:57.297Z,99.90
2022-11-23T19:26:26.682Z,99.90
2022-11-23T19:28:55.330Z,99.90
2022-11-23T19:31:26.450Z,99.90
2022-11-23T19:33:57.920Z,99.90
2022-11-23T19:36:25.663Z,99.90
2022-11-23T19:41:28.185Z,99.90
2022-11-23T19:43:59.290Z,99.90
2022-11-23T19:46:27.460Z,99.90
2022-11-23T19:48:57.209Z,99.90
2022-11-23T19:51:26.167Z,99.90
2022-11-23T19:53:56.955Z,99.90
2022-11-23T19:56:26.251Z,99.90
2022-11-23T19:58:55.455Z,99.90
2022-11-23T20:01:24.752Z,99.90
2022-11-23T20:03:55.350Z,99.90
2022-11-23T20:06:28.514Z,99.90
2022-11-23T20:09:00.255Z,99.90
2022-11-23T20:11:30.098Z,99.90
2022-11-23T20:13:58.207Z,99.90
2022-11-23T20:16:28.024Z,99.90
2022-11-23T20:19:04.230Z,99.90
2022-11-23T20:21:33.568Z,99.90
2022-11-23T20:24:11.556Z,99.90
2022-11-23T20:26:40.998Z,99.90
2022-11-23T20:29:09.640Z,99.90
2022-11-23T20:31:38.577Z,99.90
2022-11-23T20:34:08.327Z,99.90
2022-11-23T20:36:38.547Z,99.90
2022-11-23T20:39:10.374Z,99.90
2022-11-23T20:41:38.564Z,99.90
2022-11-23T20:44:14.262Z,99.90
2022-11-23T20:49:30.472Z,99.90
2022-11-23T20:51:59.001Z,99.90
2022-11-23T20:54:27.011Z,99.90
2022-11-23T20:56:54.727Z,99.90
2022-11-23T20:59:24.092Z,99.90
2022-11-23T21:01:52.574Z,99.90
2022-11-23T21:04:20.302Z,99.90
2022-11-23T21:06:48.417Z,99.90
2022-11-23T21:09:17.168Z,99.90
2022-11-23T21:12:03.269Z,99.90
2022-11-23T21:14:33.172Z,99.90
2022-11-23T21:17:01.329Z,99.90
2022-11-23T21:19:34.465Z,99.90
2022-11-23T21:22:07.407Z,99.90
2022-11-23T21:24:36.027Z,99.90
2022-11-23T21:27:05.488Z,99.90
2022-11-23T21:29:33.390Z,99.90
2022-11-23T21:32:03.845Z,99.90
2022-11-23T21:34:32.125Z,99.90
2022-11-23T21:37:00.285Z,99.90
2022-11-23T21:39:30.452Z,99.90
2022-11-23T21:41:58.077Z,99.90
2022-11-23T21:44:25.706Z,99.90
2022-11-23T21:46:53.361Z,99.90
2022-11-23T21:49:20.930Z,99.90
2022-11-23T21:51:48.909Z,99.90
2022-11-23T21:54:16.656Z,99.90
2022-11-23T21:56:47.373Z,99.90
2022-11-23T21:59:15.174Z,99.90
2022-11-23T22:01:44.117Z,99.90
2022-11-23T22:04:13.495Z,99.90
2022-11-23T22:06:42.201Z,99.90
2022-11-23T22:09:10.851Z,99.90
2022-11-23T22:11:41.192Z,99.90
2022-11-23T22:14:14.486Z,99.90
2022-11-23T22:16:43.410Z,99.90
2022-11-23T22:19:12.699Z,99.90
2022-11-23T22:21:42.242Z,99.90
2022-11-23T22:24:13.569Z,99.90
2022-11-23T22:26:42.075Z,99.90
2022-11-23T22:29:10.762Z,99.90
2022-11-23T22:31:39.053Z,99.90
2022-11-23T22:34:10.191Z,99.90
2022-11-23T22:36:38.016Z,99.90
2022-11-23T22:39:06.908Z,99.90
2022-11-23T22:41:38.361Z,99.90
2022-11-23T22:44:06.960Z,99.90
2022-11-23T22:46:34.970Z,99.90
2022-11-23T22:49:03.033Z,99.90
2022-11-23T22:51:30.900Z,99.90
2022-11-23T22:53:59.858Z,99.90
2022-11-23T22:56:28.848Z,99.90
2022-11-23T22:58:56.671Z,99.90
2022-11-23T23:01:27.113Z,99.90
2022-11-23T23:03:56.298Z,99.90
2022-11-23T23:06:26.534Z,99.90
2022-11-23T23:08:56.437Z,99.90
2022-11-23T23:11:25.298Z,99.90
2022-11-23T23:13:54.068Z,99.90
2022-11-23T23:16:22.219Z,99.90
2022-11-23T23:18:49.826Z,99.90
2022-11-23T23:21:20.134Z,99.90
2022-11-23T23:23:50.055Z,99.90
2022-11-23T23:26:19.922Z,99.90
2022-11-23T23:28:48.082Z,99.90
2022-11-23T23:31:16.968Z,99.90
2022-11-23T23:33:45.685Z,99.90
2022-11-23T23:36:16.031Z,99.90
2022-11-23T23:38:44.306Z,99.90
2022-11-23T23:41:13.158Z,99.90
2022-11-23T23:43:41.455Z,99.90
2022-11-23T23:46:12.775Z,99.90
2022-11-23T23:48:41.138Z,99.90
2022-11-23T23:51:11.868Z,99.90
2022-11-23T23:53:39.929Z,99.90
2022-11-23T23:56:12.369Z,99.90
2022-11-23T23:58:40.042Z,99.90
